Airfield :
LOGIN :

Register | Disclaimer

   EN    FR    IT 

 










Legend :    VFR   Marginal VFR   IFR   Intensive IFR   Very Intensive IFR
Visi :
Ceiling :
>= 8 km
>= 3000ft
5 to 8 km
1000 to 3000 ft
1500m to 5 km
500 to 1000 ft
800 to 1500m
200 to 500 ft
< 800m
< 200 ft
Symbols :   Thunderstorms  Fog  Heavy snow  Heavy precipitations  Wind > 20 kt
SIGMETs :     Misc.  Thunderstorms  Icing  Turbulence  Mountain Waves  Volcanic Ashes






- Airport Elevation : 29 ft
- IATA code : SVG


ENZV - Sola

CURRENT METAR :
  • 280450Z 20010KT 9999 SCT018 BKN035 05/04 Q1009

EXPIRED METARs :
  • 280420Z 21010KT 9999 FEW020 BKN040 05/04 Q1009
  • 280350Z AUTO 21009KT 9999 FEW019/// BKN041/// BKN061/// 05/04 Q1009
  • 280320Z AUTO 20009KT 9999 FEW018/// OVC082/// 05/04 Q1009
  • 280250Z 20009KT 9999 BKN025 05/04 Q1008
  • 280220Z 20009KT 9000 SCT004 SCT022 04/04 Q1008
  • 280150Z 20009KT 9000 SCT004 BKN007 05/04 Q1008
  • 280120Z 19009KT 9999 SCT005 BKN008 05/04 Q1008
  • 280050Z 17009KT 8000 BKN005 05/04 Q1009
  • 280020Z 17009KT 9000 BKN006 05/04 Q1008

TAF TAF ENZV
Valid from the 28 at 00:00 until the 29 at 00:00 UTC


272300Z 2800/2824 18012KT 9999 -RA BKN003
BECMG 2800/2802 FEW005 BKN020
PROB30
TEMPO 2800/2808 SHRA BKN009 SCT018CB
TEMPO 2812/2820 18015G25KT
TEMPO 2813/2819 BKN008
BECMG 2820/2822 18020G30KT



MET'MAP, your aeronautical weather chart ! - Copyright ORBIFLY December 2007 - Disclaimer

ORBIFLY MET'MAP TEAM :

Programming & Development : Alexandra Zaïnal
Original concept : Baudouin d'Aumeries
Technical & hardware support : Manuel Goepfert
Assistance : Marc-Olivier Méhu




SOURCES & CREDITS :

   NOAA